Flight Track Log - Related Links

Times and Time Zones

All times are in EST time to prevent confusion due to time zone crossing. See the G52668 flight status page for this flight to view local times or setup timezone preferences in your user account.

Time Position Orientation Groundspeed Altitude Reporting Facility
EST Latitude Longitude Course Direction KTS MPH feet Rate Location/Type
Fri 11:29:00 PM 27.1542 119.5598 356° North  Level Estimated
Fri 11:30:00 PM 27.2558 119.5510 356° North  Level Estimated
Fri 11:31:00 PM 27.3573 119.5423 356° North  Level Estimated
Fri 11:32:00 PM 27.4589 119.5335 356° North  Level Estimated
Fri 11:33:00 PM 27.5605 119.5248 356° North  Level Estimated
Fri 11:34:00 PM 27.6621 119.5160 356° North  Level Estimated
Fri 11:35:00 PM 27.7637 119.5072 356° North  Level Estimated
Fri 11:36:00 PM 27.8653 119.4983 356° North  Level Estimated
Fri 11:37:00 PM 27.9669 119.4895 356° North  Level Estimated
Fri 11:38:00 PM 28.0684 119.4806 356° North  Level Estimated
Fri 11:39:00 PM 28.1700 119.4718 356° North  Level Estimated
Fri 11:40:00 PM 28.2716 119.4629 356° North  Level Estimated
Fri 11:41:00 PM 28.3732 119.4540 356° North  Level Estimated
Fri 11:42:00 PM 28.4748 119.4451 356° North  Level Estimated
Fri 11:43:00 PM 28.5763 119.4361 356° North  Level Estimated
Fri 11:44:00 PM 28.6779 119.4271 356° North  Level Estimated
Fri 11:45:00 PM 28.7795 119.4182 356° North  Level Estimated
Fri 11:46:00 PM 28.8811 119.4092 356° North  Level Estimated
Fri 11:47:00 PM 28.9827 119.4002 356° North  Level Estimated
Fri 11:48:00 PM 29.0842 119.3911 356° North  Level Estimated
Fri 11:49:00 PM 29.1858 119.3821 356° North  Level Estimated
Fri 11:50:00 PM 29.2874 119.3730 356° North  Level Estimated
Fri 11:51:00 PM 29.3890 119.3639 356° North  Level Estimated
Fri 11:52:00 PM 29.4906 119.3548 356° North  Level Estimated
Fri 11:53:00 PM 29.5921 119.3457 356° North  Level Estimated
Fri 11:54:00 PM 29.6937 119.3366 356° North  Level Estimated
Fri 11:55:00 PM 29.7953 119.3274 356° North  Level Estimated
Fri 11:56:00 PM 29.8968 119.3182 356° North  Level Estimated
Fri 11:57:00 PM 29.9984 119.3091 356° North  Level Estimated
Fri 11:58:00 PM 30.1000 119.2998 356° North  Level Estimated
Fri 11:59:00 PM 30.2015 119.2906 356° North  Level Estimated
Sat 12:00:00 AM 30.3031 119.2814 356° North  Level Estimated
Sat 12:01:00 AM 30.4047 119.2721 355° North  Level Estimated
Sat 12:02:00 AM 30.5063 119.2628 355° North  Level Estimated
Sat 12:03:00 AM 30.6078 119.2535 355° North  Level Estimated
Sat 12:04:00 AM 30.7094 119.2442 355° North  Level Estimated
Sat 12:05:00 AM 30.8110 119.2348 355° North  Level Estimated
Sat 12:06:00 AM 30.9125 119.2254 355° North  Level Estimated
Sat 12:07:00 AM 31.0141 119.2160 355° North  Level Estimated
Sat 12:08:00 AM 31.1157 119.2066 355° North  Level Estimated
Sat 12:09:00 AM 31.2172 119.1972 355° North  Level Estimated
Sat 12:10:00 AM 31.3188 119.1878 355° North  Level Estimated
Sat 12:11:00 AM 31.4203 119.1783 355° North  Level Estimated
Sat 12:12:00 AM 31.5219 119.1688 355° North  Level Estimated
Sat 12:13:00 AM 31.6235 119.1593 355° North  Level Estimated
Sat 12:14:00 AM 31.7250 119.1498 355° North  Level Estimated
Sat 12:15:00 AM 31.8266 119.1402 355° North  Level Estimated
Sat 12:16:00 AM 31.9282 119.1306 355° North  Level Estimated
Sat 12:17:00 AM 32.0297 119.1210 355° North  Level Estimated
Sat 12:18:00 AM 32.1313 119.1114 355° North  Level Estimated
Sat 12:19:00 AM 32.2328 119.1018 355° North  Level Estimated
Sat 12:20:00 AM 32.3344 119.0921 355° North  Level Estimated
Sat 12:21:00 AM 32.4360 119.0825 355° North  Level Estimated
Sat 12:22:00 AM 32.5375 119.0728 355° North  Level Estimated
Sat 12:23:00 AM 32.6390 119.0630 355° North  Level Estimated
Sat 12:24:00 AM 32.7406 119.0533 355° North  Level Estimated
Sat 12:25:00 AM 32.8422 119.0435 355° North  Level Estimated
Sat 12:26:00 AM 32.9437 119.0337 355° North  Level Estimated
Sat 12:27:00 AM 33.0452 119.0239 355° North  Level Estimated
Sat 12:28:00 AM 33.1468 119.0141 355° North  Level Estimated
Sat 12:29:00 AM 33.2483 119.0042 355° North  Level Estimated
Sat 12:30:00 AM 33.3499 118.9943 355° North  Level Estimated
Sat 12:31:00 AM 33.4515 118.9845 355° North  Level Estimated
Sat 12:32:00 AM 33.5530 118.9745 355° North  Level Estimated
Sat 12:33:00 AM 33.6545 118.9646 355° North  Level Estimated
Sat 12:34:00 AM 33.7561 118.9546 355° North  Level Estimated
Sat 12:35:00 AM 33.8576 118.9446 355° North  Level Estimated
Sat 12:36:00 AM 33.9592 118.9346 355° North  Level Estimated
Sat 12:37:00 AM 34.0607 118.9245 355° North  Level Estimated
Sat 12:38:00 AM 34.1623 118.9145 355° North  Level Estimated
Sat 12:39:00 AM 34.2638 118.9044 355° North  Level Estimated
Sat 12:40:00 AM 34.3653 118.8942 355° North  Level Estimated
Sat 12:41:00 AM 34.4669 118.8841 355° North  Level Estimated
Sat 12:42:00 AM 34.5684 118.8739 355° North  Level Estimated
Sat 12:43:00 AM 34.5717 118.8736 355° North  Level Estimated
Sat 12:44:00 AM 34.5717 118.8736 165° South  Level Estimated
Sat 12:45:00 AM 34.5717 118.8736 165° South  Level Estimated
Sat 12:46:00 AM 34.5717 118.8736 165° South  Level Estimated
Sat 12:47:00 AM 34.5717 118.8736 165° South  Level Estimated
Sat 12:48:00 AM 34.5717 118.8736 165° South  Level Estimated
Sat 12:49:00 AM 34.5717 118.8736 165° South  Level Estimated
Sat 12:50:00 AM 34.5717 118.8736 165° South  Level Estimated
Sat 12:51:00 AM 34.5717 118.8736 165° South  Level Estimated
Sat 12:52:00 AM 34.5717 118.8736 165° South  Level Estimated
Sat 12:53:00 AM 34.5717 118.8736 165° South  Level Estimated
Sat 12:54:00 AM 34.5717 118.8736 165° South  Level Estimated
Sat 12:55:00 AM 34.5717 118.8736 165° South  Level Estimated
Sat 12:56:00 AM 34.5717 118.8736 165° South  Level Estimated
Sat 12:57:00 AM 34.5717 118.8736 165° South  Level Estimated
Sat 12:58:00 AM 34.5717 118.8736 165° South  Level Estimated

Login

Don't have an account? Register now (free) for customized features, flight alerts, and more!